sensor_id;sensor_type;location;lat;lon;timestamp;P1;durP1;ratioP1;P2;durP2;ratioP2
49015;SDS011;34830;44.064;12.566;2023-06-22T00:01:05;14.45;;;5.75;;
49015;SDS011;34830;44.064;12.566;2023-06-22T00:03:31;10.93;;;6.00;;
49015;SDS011;34830;44.064;12.566;2023-06-22T00:05:57;8.57;;;5.28;;
49015;SDS011;34830;44.064;12.566;2023-06-22T00:08:23;11.48;;;6.03;;
49015;SDS011;34830;44.064;12.566;2023-06-22T00:10:48;11.18;;;5.63;;
49015;SDS011;34830;44.064;12.566;2023-06-22T00:13:14;11.88;;;6.18;;
49015;SDS011;34830;44.064;12.566;2023-06-22T00:15:41;10.73;;;5.90;;
49015;SDS011;34830;44.064;12.566;2023-06-22T00:18:07;9.30;;;5.15;;
49015;SDS011;34830;44.064;12.566;2023-06-22T00:20:33;14.85;;;6.95;;
49015;SDS011;34830;44.064;12.566;2023-06-22T00:23:02;9.98;;;6.07;;
49015;SDS011;34830;44.064;12.566;2023-06-22T00:25:39;16.58;;;6.53;;
49015;SDS011;34830;44.064;12.566;2023-06-22T00:28:05;11.57;;;6.18;;
49015;SDS011;34830;44.064;12.566;2023-06-22T00:30:34;10.88;;;5.68;;
49015;SDS011;34830;44.064;12.566;2023-06-22T00:33:00;10.73;;;6.03;;
49015;SDS011;34830;44.064;12.566;2023-06-22T00:35:26;12.35;;;5.80;;
49015;SDS011;34830;44.064;12.566;2023-06-22T00:37:58;15.02;;;5.60;;
49015;SDS011;34830;44.064;12.566;2023-06-22T00:40:27;9.00;;;6.80;;
49015;SDS011;34830;44.064;12.566;2023-06-22T00:42:53;12.55;;;6.07;;
49015;SDS011;34830;44.064;12.566;2023-06-22T00:45:18;13.55;;;5.93;;
49015;SDS011;34830;44.064;12.566;2023-06-22T00:47:44;46.20;;;10.18;;
49015;SDS011;34830;44.064;12.566;2023-06-22T00:50:10;15.77;;;7.05;;
49015;SDS011;34830;44.064;12.566;2023-06-22T00:52:38;11.20;;;5.85;;
49015;SDS011;34830;44.064;12.566;2023-06-22T00:57:35;13.20;;;6.30;;
49015;SDS011;34830;44.064;12.566;2023-06-22T01:00:03;12.98;;;6.75;;
49015;SDS011;34830;44.064;12.566;2023-06-22T01:02:33;10.85;;;7.40;;
49015;SDS011;34830;44.064;12.566;2023-06-22T01:04:59;9.65;;;7.45;;
49015;SDS011;34830;44.064;12.566;2023-06-22T01:07:35;10.85;;;7.68;;
49015;SDS011;34830;44.064;12.566;2023-06-22T01:12:26;9.23;;;7.07;;
49015;SDS011;34830;44.064;12.566;2023-06-22T01:14:58;10.32;;;7.00;;
49015;SDS011;34830;44.064;12.566;2023-06-22T01:17:26;14.32;;;6.63;;
49015;SDS011;34830;44.064;12.566;2023-06-22T01:19:54;11.43;;;7.07;;
49015;SDS011;34830;44.064;12.566;2023-06-22T01:22:24;9.60;;;6.10;;
49015;SDS011;34830;44.064;12.566;2023-06-22T01:25:13;10.25;;;6.70;;
49015;SDS011;34830;44.064;12.566;2023-06-22T01:30:11;9.57;;;6.60;;
49015;SDS011;34830;44.064;12.566;2023-06-22T01:32:38;9.50;;;6.18;;
49015;SDS011;34830;44.064;12.566;2023-06-22T01:35:05;8.38;;;5.43;;
49015;SDS011;34830;44.064;12.566;2023-06-22T01:37:32;9.15;;;6.57;;
49015;SDS011;34830;44.064;12.566;2023-06-22T01:39:58;11.40;;;7.30;;
49015;SDS011;34830;44.064;12.566;2023-06-22T01:42:25;11.00;;;6.43;;
49015;SDS011;34830;44.064;12.566;2023-06-22T01:44:54;11.73;;;7.80;;
49015;SDS011;34830;44.064;12.566;2023-06-22T01:47:21;13.05;;;8.05;;
49015;SDS011;34830;44.064;12.566;2023-06-22T01:49:48;9.70;;;6.82;;
49015;SDS011;34830;44.064;12.566;2023-06-22T01:52:14;10.18;;;6.93;;
49015;SDS011;34830;44.064;12.566;2023-06-22T01:54:40;9.88;;;7.40;;
49015;SDS011;34830;44.064;12.566;2023-06-22T01:57:06;8.05;;;6.88;;
49015;SDS011;34830;44.064;12.566;2023-06-22T02:01:59;13.82;;;7.28;;
49015;SDS011;34830;44.064;12.566;2023-06-22T02:04:27;10.70;;;6.85;;
49015;SDS011;34830;44.064;12.566;2023-06-22T02:06:56;10.23;;;6.88;;
49015;SDS011;34830;44.064;12.566;2023-06-22T02:09:23;9.25;;;7.38;;
49015;SDS011;34830;44.064;12.566;2023-06-22T02:11:51;10.00;;;7.45;;
49015;SDS011;34830;44.064;12.566;2023-06-22T02:14:20;13.60;;;7.22;;
49015;SDS011;34830;44.064;12.566;2023-06-22T02:16:46;9.23;;;6.97;;
49015;SDS011;34830;44.064;12.566;2023-06-22T02:19:12;12.00;;;7.20;;
49015;SDS011;34830;44.064;12.566;2023-06-22T02:21:41;16.83;;;7.38;;
49015;SDS011;34830;44.064;12.566;2023-06-22T02:24:07;10.38;;;7.32;;
49015;SDS011;34830;44.064;12.566;2023-06-22T02:26:34;10.00;;;7.13;;
49015;SDS011;34830;44.064;12.566;2023-06-22T02:29:01;14.07;;;7.15;;
49015;SDS011;34830;44.064;12.566;2023-06-22T02:31:27;12.88;;;7.50;;
49015;SDS011;34830;44.064;12.566;2023-06-22T02:33:57;12.48;;;7.38;;
49015;SDS011;34830;44.064;12.566;2023-06-22T02:36:23;15.13;;;7.70;;
49015;SDS011;34830;44.064;12.566;2023-06-22T02:38:50;11.57;;;7.35;;
49015;SDS011;34830;44.064;12.566;2023-06-22T02:41:16;11.27;;;7.07;;
49015;SDS011;34830;44.064;12.566;2023-06-22T02:43:45;10.60;;;7.80;;
49015;SDS011;34830;44.064;12.566;2023-06-22T02:46:11;11.80;;;8.07;;
49015;SDS011;34830;44.064;12.566;2023-06-22T02:48:39;13.23;;;7.95;;
49015;SDS011;34830;44.064;12.566;2023-06-22T02:51:05;14.07;;;8.25;;
49015;SDS011;34830;44.064;12.566;2023-06-22T02:53:32;10.93;;;8.13;;
49015;SDS011;34830;44.064;12.566;2023-06-22T02:55:57;14.73;;;8.63;;
49015;SDS011;34830;44.064;12.566;2023-06-22T02:58:23;10.07;;;7.38;;
49015;SDS011;34830;44.064;12.566;2023-06-22T03:00:50;12.75;;;8.05;;
49015;SDS011;34830;44.064;12.566;2023-06-22T03:03:19;12.20;;;7.80;;
49015;SDS011;34830;44.064;12.566;2023-06-22T03:05:45;10.45;;;7.65;;
49015;SDS011;34830;44.064;12.566;2023-06-22T03:08:11;19.80;;;8.70;;
49015;SDS011;34830;44.064;12.566;2023-06-22T03:10:37;14.52;;;7.55;;
49015;SDS011;34830;44.064;12.566;2023-06-22T03:13:02;11.68;;;7.78;;
49015;SDS011;34830;44.064;12.566;2023-06-22T03:15:29;14.13;;;8.40;;
49015;SDS011;34830;44.064;12.566;2023-06-22T03:17:57;13.38;;;8.75;;
49015;SDS011;34830;44.064;12.566;2023-06-22T03:20:23;12.73;;;8.07;;
49015;SDS011;34830;44.064;12.566;2023-06-22T03:22:49;12.32;;;7.97;;
49015;SDS011;34830;44.064;12.566;2023-06-22T03:25:14;14.15;;;8.48;;
49015;SDS011;34830;44.064;12.566;2023-06-22T03:27:43;12.65;;;7.75;;
49015;SDS011;34830;44.064;12.566;2023-06-22T03:30:10;10.02;;;7.07;;
49015;SDS011;34830;44.064;12.566;2023-06-22T03:32:36;18.83;;;8.10;;
49015;SDS011;34830;44.064;12.566;2023-06-22T03:35:04;13.57;;;7.00;;
49015;SDS011;34830;44.064;12.566;2023-06-22T03:37:33;12.35;;;6.78;;
49015;SDS011;34830;44.064;12.566;2023-06-22T03:39:59;22.33;;;7.28;;
49015;SDS011;34830;44.064;12.566;2023-06-22T03:42:25;11.13;;;6.00;;
49015;SDS011;34830;44.064;12.566;2023-06-22T03:44:51;12.73;;;6.22;;
49015;SDS011;34830;44.064;12.566;2023-06-22T03:47:17;13.18;;;6.05;;
49015;SDS011;34830;44.064;12.566;2023-06-22T03:49:42;10.55;;;5.72;;
49015;SDS011;34830;44.064;12.566;2023-06-22T03:52:08;14.98;;;6.53;;
49015;SDS011;34830;44.064;12.566;2023-06-22T03:54:34;14.40;;;6.45;;
49015;SDS011;34830;44.064;12.566;2023-06-22T03:57:00;9.82;;;5.82;;
49015;SDS011;34830;44.064;12.566;2023-06-22T03:59:26;13.20;;;6.53;;
49015;SDS011;34830;44.064;12.566;2023-06-22T04:01:52;10.57;;;6.05;;
49015;SDS011;34830;44.064;12.566;2023-06-22T04:04:18;10.57;;;7.40;;
49015;SDS011;34830;44.064;12.566;2023-06-22T04:06:43;11.38;;;7.28;;
49015;SDS011;34830;44.064;12.566;2023-06-22T04:09:09;11.73;;;7.68;;
49015;SDS011;34830;44.064;12.566;2023-06-22T04:11:35;14.40;;;6.25;;
49015;SDS011;34830;44.064;12.566;2023-06-22T04:14:01;14.57;;;6.40;;
49015;SDS011;34830;44.064;12.566;2023-06-22T04:16:26;12.88;;;6.57;;
49015;SDS011;34830;44.064;12.566;2023-06-22T04:18:52;12.15;;;6.80;;
49015;SDS011;34830;44.064;12.566;2023-06-22T04:21:18;12.40;;;6.32;;
49015;SDS011;34830;44.064;12.566;2023-06-22T04:23:47;13.35;;;6.70;;
49015;SDS011;34830;44.064;12.566;2023-06-22T04:26:13;17.83;;;6.30;;
49015;SDS011;34830;44.064;12.566;2023-06-22T04:28:42;9.65;;;6.10;;
49015;SDS011;34830;44.064;12.566;2023-06-22T04:31:08;11.68;;;6.05;;
49015;SDS011;34830;44.064;12.566;2023-06-22T04:33:33;18.80;;;7.03;;
49015;SDS011;34830;44.064;12.566;2023-06-22T04:35:59;10.95;;;6.75;;
49015;SDS011;34830;44.064;12.566;2023-06-22T04:38:29;11.82;;;6.60;;
49015;SDS011;34830;44.064;12.566;2023-06-22T04:40:58;11.50;;;6.82;;
49015;SDS011;34830;44.064;12.566;2023-06-22T04:43:24;15.82;;;7.30;;
49015;SDS011;34830;44.064;12.566;2023-06-22T04:45:50;13.18;;;6.43;;
49015;SDS011;34830;44.064;12.566;2023-06-22T04:48:17;10.35;;;6.32;;
49015;SDS011;34830;44.064;12.566;2023-06-22T04:50:43;12.05;;;7.00;;
49015;SDS011;34830;44.064;12.566;2023-06-22T04:53:09;23.00;;;8.00;;
49015;SDS011;34830;44.064;12.566;2023-06-22T04:55:38;24.48;;;7.28;;
49015;SDS011;34830;44.064;12.566;2023-06-22T04:58:07;12.43;;;6.88;;
49015;SDS011;34830;44.064;12.566;2023-06-22T05:00:33;16.48;;;8.00;;
49015;SDS011;34830;44.064;12.566;2023-06-22T05:03:01;13.98;;;7.18;;
49015;SDS011;34830;44.064;12.566;2023-06-22T05:05:28;15.27;;;6.68;;
49015;SDS011;34830;44.064;12.566;2023-06-22T05:07:55;13.30;;;7.10;;
49015;SDS011;34830;44.064;12.566;2023-06-22T05:10:25;12.17;;;6.37;;
49015;SDS011;34830;44.064;12.566;2023-06-22T05:12:51;15.57;;;6.82;;
49015;SDS011;34830;44.064;12.566;2023-06-22T05:15:17;17.90;;;6.80;;
49015;SDS011;34830;44.064;12.566;2023-06-22T05:17:45;24.08;;;7.28;;
49015;SDS011;34830;44.064;12.566;2023-06-22T05:20:11;15.52;;;5.97;;
49015;SDS011;34830;44.064;12.566;2023-06-22T05:22:38;13.95;;;6.20;;
49015;SDS011;34830;44.064;12.566;2023-06-22T05:25:05;8.70;;;5.88;;
49015;SDS011;34830;44.064;12.566;2023-06-22T05:27:31;15.52;;;6.43;;
49015;SDS011;34830;44.064;12.566;2023-06-22T05:29:57;14.52;;;5.85;;
49015;SDS011;34830;44.064;12.566;2023-06-22T05:32:23;15.45;;;5.70;;
49015;SDS011;34830;44.064;12.566;2023-06-22T05:34:48;14.82;;;5.53;;
49015;SDS011;34830;44.064;12.566;2023-06-22T05:37:14;10.77;;;4.68;;
49015;SDS011;34830;44.064;12.566;2023-06-22T05:39:40;12.75;;;4.72;;
49015;SDS011;34830;44.064;12.566;2023-06-22T05:42:07;11.13;;;5.57;;
49015;SDS011;34830;44.064;12.566;2023-06-22T05:44:33;23.65;;;6.32;;
49015;SDS011;34830;44.064;12.566;2023-06-22T05:46:59;15.80;;;5.18;;
49015;SDS011;34830;44.064;12.566;2023-06-22T05:49:25;11.93;;;4.13;;
49015;SDS011;34830;44.064;12.566;2023-06-22T05:51:55;15.48;;;5.03;;
49015;SDS011;34830;44.064;12.566;2023-06-22T05:54:22;13.63;;;4.30;;
49015;SDS011;34830;44.064;12.566;2023-06-22T05:56:48;10.90;;;4.90;;
49015;SDS011;34830;44.064;12.566;2023-06-22T05:59:13;17.33;;;6.45;;
49015;SDS011;34830;44.064;12.566;2023-06-22T06:01:39;19.05;;;4.38;;
49015;SDS011;34830;44.064;12.566;2023-06-22T06:04:05;11.73;;;4.63;;
49015;SDS011;34830;44.064;12.566;2023-06-22T06:06:33;13.93;;;4.43;;
49015;SDS011;34830;44.064;12.566;2023-06-22T06:09:03;8.27;;;4.22;;
49015;SDS011;34830;44.064;12.566;2023-06-22T06:11:29;14.00;;;3.85;;
49015;SDS011;34830;44.064;12.566;2023-06-22T06:13:54;15.10;;;4.90;;
49015;SDS011;34830;44.064;12.566;2023-06-22T06:16:21;11.73;;;3.42;;
49015;SDS011;34830;44.064;12.566;2023-06-22T06:18:47;10.65;;;3.63;;
49015;SDS011;34830;44.064;12.566;2023-06-22T06:21:15;15.40;;;4.30;;
49015;SDS011;34830;44.064;12.566;2023-06-22T06:23:41;11.23;;;4.85;;
49015;SDS011;34830;44.064;12.566;2023-06-22T06:26:07;14.48;;;4.10;;
49015;SDS011;34830;44.064;12.566;2023-06-22T06:28:34;10.82;;;4.60;;
49015;SDS011;34830;44.064;12.566;2023-06-22T06:30:59;16.65;;;4.30;;
49015;SDS011;34830;44.064;12.566;2023-06-22T06:33:25;10.32;;;3.90;;
49015;SDS011;34830;44.064;12.566;2023-06-22T06:35:51;9.00;;;4.25;;
49015;SDS011;34830;44.064;12.566;2023-06-22T06:38:17;11.82;;;4.97;;
49015;SDS011;34830;44.064;12.566;2023-06-22T06:40:42;10.32;;;4.25;;
49015;SDS011;34830;44.064;12.566;2023-06-22T06:43:09;18.98;;;4.00;;
49015;SDS011;34830;44.064;12.566;2023-06-22T06:45:35;12.27;;;5.00;;
49015;SDS011;34830;44.064;12.566;2023-06-22T06:48:01;15.45;;;4.80;;
49015;SDS011;34830;44.064;12.566;2023-06-22T06:50:27;12.52;;;4.40;;
49015;SDS011;34830;44.064;12.566;2023-06-22T06:52:53;12.05;;;5.78;;
49015;SDS011;34830;44.064;12.566;2023-06-22T06:55:19;11.10;;;6.15;;
49015;SDS011;34830;44.064;12.566;2023-06-22T06:57:45;22.85;;;6.13;;
49015;SDS011;34830;44.064;12.566;2023-06-22T07:00:13;13.80;;;4.90;;
49015;SDS011;34830;44.064;12.566;2023-06-22T07:02:43;18.70;;;6.68;;
49015;SDS011;34830;44.064;12.566;2023-06-22T07:05:10;14.75;;;5.55;;
49015;SDS011;34830;44.064;12.566;2023-06-22T07:07:36;12.32;;;6.40;;
49015;SDS011;34830;44.064;12.566;2023-06-22T07:10:02;11.07;;;5.72;;
49015;SDS011;34830;44.064;12.566;2023-06-22T07:12:28;11.95;;;5.03;;
49015;SDS011;34830;44.064;12.566;2023-06-22T07:14:57;15.20;;;5.03;;
49015;SDS011;34830;44.064;12.566;2023-06-22T07:17:26;13.55;;;5.88;;
49015;SDS011;34830;44.064;12.566;2023-06-22T07:19:51;11.68;;;5.35;;
49015;SDS011;34830;44.064;12.566;2023-06-22T07:22:17;16.52;;;4.78;;
49015;SDS011;34830;44.064;12.566;2023-06-22T07:24:43;11.48;;;5.72;;
49015;SDS011;34830;44.064;12.566;2023-06-22T07:27:09;10.63;;;5.45;;
49015;SDS011;34830;44.064;12.566;2023-06-22T07:29:36;12.68;;;5.28;;
49015;SDS011;34830;44.064;12.566;2023-06-22T07:32:04;14.70;;;4.47;;
49015;SDS011;34830;44.064;12.566;2023-06-22T07:34:30;14.68;;;5.47;;
49015;SDS011;34830;44.064;12.566;2023-06-22T07:36:56;10.48;;;5.63;;
49015;SDS011;34830;44.064;12.566;2023-06-22T07:39:22;12.15;;;5.45;;
49015;SDS011;34830;44.064;12.566;2023-06-22T07:41:51;7.25;;;5.28;;
49015;SDS011;34830;44.064;12.566;2023-06-22T07:44:17;13.25;;;5.43;;
49015;SDS011;34830;44.064;12.566;2023-06-22T07:46:42;11.85;;;6.82;;
49015;SDS011;34830;44.064;12.566;2023-06-22T07:49:08;13.15;;;5.82;;
49015;SDS011;34830;44.064;12.566;2023-06-22T07:51:34;13.13;;;6.20;;
49015;SDS011;34830;44.064;12.566;2023-06-22T07:54:00;9.48;;;5.68;;
49015;SDS011;34830;44.064;12.566;2023-06-22T07:56:26;7.63;;;4.90;;
49015;SDS011;34830;44.064;12.566;2023-06-22T07:58:51;11.90;;;6.03;;
49015;SDS011;34830;44.064;12.566;2023-06-22T08:01:18;15.75;;;6.28;;
49015;SDS011;34830;44.064;12.566;2023-06-22T08:03:47;13.20;;;6.50;;
49015;SDS011;34830;44.064;12.566;2023-06-22T08:06:13;15.80;;;6.78;;
49015;SDS011;34830;44.064;12.566;2023-06-22T08:08:39;16.25;;;5.47;;
49015;SDS011;34830;44.064;12.566;2023-06-22T08:11:05;13.20;;;6.03;;
49015;SDS011;34830;44.064;12.566;2023-06-22T08:13:31;9.52;;;4.88;;
49015;SDS011;34830;44.064;12.566;2023-06-22T08:15:57;13.05;;;6.47;;
49015;SDS011;34830;44.064;12.566;2023-06-22T08:18:23;12.35;;;5.03;;
49015;SDS011;34830;44.064;12.566;2023-06-22T08:20:48;14.77;;;4.95;;
49015;SDS011;34830;44.064;12.566;2023-06-22T08:23:15;11.95;;;5.32;;
49015;SDS011;34830;44.064;12.566;2023-06-22T08:25:41;16.50;;;5.40;;
49015;SDS011;34830;44.064;12.566;2023-06-22T08:28:06;10.30;;;5.18;;
49015;SDS011;34830;44.064;12.566;2023-06-22T08:30:32;11.43;;;4.75;;
49015;SDS011;34830;44.064;12.566;2023-06-22T08:32:58;11.48;;;5.18;;
49015;SDS011;34830;44.064;12.566;2023-06-22T08:35:24;13.20;;;4.90;;
49015;SDS011;34830;44.064;12.566;2023-06-22T08:37:50;10.18;;;5.32;;
49015;SDS011;34830;44.064;12.566;2023-06-22T08:40:18;12.43;;;5.45;;
49015;SDS011;34830;44.064;12.566;2023-06-22T08:42:45;11.15;;;4.25;;
49015;SDS011;34830;44.064;12.566;2023-06-22T08:45:11;11.55;;;5.20;;
49015;SDS011;34830;44.064;12.566;2023-06-22T08:47:36;13.25;;;4.85;;
49015;SDS011;34830;44.064;12.566;2023-06-22T08:50:02;14.50;;;4.75;;
49015;SDS011;34830;44.064;12.566;2023-06-22T08:52:28;9.45;;;4.90;;
49015;SDS011;34830;44.064;12.566;2023-06-22T08:54:54;16.70;;;5.05;;
49015;SDS011;34830;44.064;12.566;2023-06-22T08:57:21;10.75;;;4.78;;
49015;SDS011;34830;44.064;12.566;2023-06-22T08:59:46;9.35;;;5.38;;
49015;SDS011;34830;44.064;12.566;2023-06-22T09:02:12;13.75;;;4.78;;
49015;SDS011;34830;44.064;12.566;2023-06-22T09:04:38;11.43;;;6.03;;
49015;SDS011;34830;44.064;12.566;2023-06-22T09:07:04;7.05;;;3.90;;
49015;SDS011;34830;44.064;12.566;2023-06-22T09:09:30;16.98;;;5.57;;
49015;SDS011;34830;44.064;12.566;2023-06-22T09:11:55;14.98;;;4.78;;
49015;SDS011;34830;44.064;12.566;2023-06-22T09:14:21;9.80;;;4.57;;
49015;SDS011;34830;44.064;12.566;2023-06-22T09:16:47;12.25;;;5.78;;
49015;SDS011;34830;44.064;12.566;2023-06-22T09:19:13;8.95;;;4.72;;
49015;SDS011;34830;44.064;12.566;2023-06-22T09:21:39;7.88;;;4.80;;
49015;SDS011;34830;44.064;12.566;2023-06-22T09:24:05;9.55;;;5.18;;
49015;SDS011;34830;44.064;12.566;2023-06-22T09:26:31;11.98;;;5.43;;
49015;SDS011;34830;44.064;12.566;2023-06-22T09:28:56;13.77;;;5.57;;
49015;SDS011;34830;44.064;12.566;2023-06-22T09:31:23;10.45;;;5.03;;
49015;SDS011;34830;44.064;12.566;2023-06-22T09:33:51;8.15;;;5.20;;
49015;SDS011;34830;44.064;12.566;2023-06-22T09:36:18;10.20;;;5.78;;
49015;SDS011;34830;44.064;12.566;2023-06-22T09:38:43;10.55;;;5.88;;
49015;SDS011;34830;44.064;12.566;2023-06-22T09:41:09;9.73;;;5.75;;
49015;SDS011;34830;44.064;12.566;2023-06-22T09:43:35;10.35;;;5.97;;
49015;SDS011;34830;44.064;12.566;2023-06-22T09:46:01;12.52;;;5.07;;
49015;SDS011;34830;44.064;12.566;2023-06-22T09:48:27;15.80;;;5.95;;
49015;SDS011;34830;44.064;12.566;2023-06-22T09:50:54;10.02;;;5.32;;
49015;SDS011;34830;44.064;12.566;2023-06-22T09:53:20;16.83;;;6.80;;
49015;SDS011;34830;44.064;12.566;2023-06-22T09:55:46;18.15;;;7.20;;
49015;SDS011;34830;44.064;12.566;2023-06-22T09:58:12;8.95;;;5.40;;
49015;SDS011;34830;44.064;12.566;2023-06-22T10:00:38;18.60;;;7.15;;
49015;SDS011;34830;44.064;12.566;2023-06-22T10:03:03;14.68;;;7.10;;
49015;SDS011;34830;44.064;12.566;2023-06-22T10:05:29;13.65;;;6.03;;
49015;SDS011;34830;44.064;12.566;2023-06-22T10:07:55;13.68;;;7.10;;
49015;SDS011;34830;44.064;12.566;2023-06-22T10:10:21;16.13;;;7.22;;
49015;SDS011;34830;44.064;12.566;2023-06-22T10:12:47;9.07;;;5.18;;
49015;SDS011;34830;44.064;12.566;2023-06-22T10:15:13;10.93;;;6.15;;
49015;SDS011;34830;44.064;12.566;2023-06-22T10:17:39;12.32;;;5.60;;
49015;SDS011;34830;44.064;12.566;2023-06-22T10:20:06;16.77;;;6.10;;
49015;SDS011;34830;44.064;12.566;2023-06-22T10:22:39;12.30;;;6.30;;
49015;SDS011;34830;44.064;12.566;2023-06-22T10:25:05;15.00;;;6.05;;
49015;SDS011;34830;44.064;12.566;2023-06-22T10:27:32;10.35;;;5.18;;
49015;SDS011;34830;44.064;12.566;2023-06-22T10:29:57;10.13;;;5.28;;
49015;SDS011;34830;44.064;12.566;2023-06-22T10:32:23;9.85;;;5.13;;
49015;SDS011;34830;44.064;12.566;2023-06-22T10:34:49;7.93;;;4.80;;
49015;SDS011;34830;44.064;12.566;2023-06-22T10:37:15;11.07;;;5.15;;
49015;SDS011;34830;44.064;12.566;2023-06-22T10:39:40;11.38;;;5.38;;
49015;SDS011;34830;44.064;12.566;2023-06-22T10:42:07;11.65;;;5.70;;
49015;SDS011;34830;44.064;12.566;2023-06-22T10:44:32;11.95;;;5.40;;
49015;SDS011;34830;44.064;12.566;2023-06-22T10:46:58;9.23;;;4.82;;
49015;SDS011;34830;44.064;12.566;2023-06-22T10:49:24;9.40;;;5.15;;
49015;SDS011;34830;44.064;12.566;2023-06-22T10:51:50;10.45;;;4.85;;
49015;SDS011;34830;44.064;12.566;2023-06-22T10:54:15;9.02;;;4.85;;
49015;SDS011;34830;44.064;12.566;2023-06-22T10:56:43;8.35;;;5.05;;
49015;SDS011;34830;44.064;12.566;2023-06-22T10:59:09;6.70;;;5.03;;
49015;SDS011;34830;44.064;12.566;2023-06-22T11:01:35;6.90;;;5.32;;
49015;SDS011;34830;44.064;12.566;2023-06-22T11:04:02;9.73;;;4.30;;
49015;SDS011;34830;44.064;12.566;2023-06-22T11:06:28;9.05;;;4.75;;
49015;SDS011;34830;44.064;12.566;2023-06-22T11:08:54;8.57;;;4.63;;
49015;SDS011;34830;44.064;12.566;2023-06-22T11:11:19;14.02;;;4.88;;
49015;SDS011;34830;44.064;12.566;2023-06-22T11:13:45;8.13;;;4.28;;
49015;SDS011;34830;44.064;12.566;2023-06-22T11:16:11;6.00;;;4.25;;
49015;SDS011;34830;44.064;12.566;2023-06-22T11:18:37;12.38;;;5.18;;
49015;SDS011;34830;44.064;12.566;2023-06-22T11:21:02;11.75;;;4.90;;
49015;SDS011;34830;44.064;12.566;2023-06-22T11:23:28;8.23;;;5.13;;
49015;SDS011;34830;44.064;12.566;2023-06-22T11:25:54;8.18;;;4.68;;
49015;SDS011;34830;44.064;12.566;2023-06-22T11:28:20;10.65;;;4.80;;
49015;SDS011;34830;44.064;12.566;2023-06-22T11:30:45;8.95;;;5.28;;
49015;SDS011;34830;44.064;12.566;2023-06-22T11:33:11;11.30;;;5.13;;
49015;SDS011;34830;44.064;12.566;2023-06-22T11:35:37;6.93;;;4.30;;
49015;SDS011;34830;44.064;12.566;2023-06-22T11:38:03;8.02;;;4.68;;
49015;SDS011;34830;44.064;12.566;2023-06-22T11:40:30;7.65;;;4.95;;
49015;SDS011;34830;44.064;12.566;2023-06-22T11:42:56;9.45;;;4.78;;
49015;SDS011;34830;44.064;12.566;2023-06-22T11:45:21;11.63;;;5.55;;
49015;SDS011;34830;44.064;12.566;2023-06-22T11:47:47;10.75;;;5.72;;
49015;SDS011;34830;44.064;12.566;2023-06-22T11:50:13;14.52;;;5.32;;
49015;SDS011;34830;44.064;12.566;2023-06-22T11:52:39;11.15;;;5.63;;
49015;SDS011;34830;44.064;12.566;2023-06-22T11:55:05;11.75;;;5.45;;
49015;SDS011;34830;44.064;12.566;2023-06-22T11:57:38;10.00;;;5.20;;
49015;SDS011;34830;44.064;12.566;2023-06-22T12:00:04;11.30;;;5.45;;
49015;SDS011;34830;44.064;12.566;2023-06-22T12:02:41;16.00;;;6.13;;
49015;SDS011;34830;44.064;12.566;2023-06-22T12:05:07;11.48;;;5.70;;
49015;SDS011;34830;44.064;12.566;2023-06-22T12:07:33;12.70;;;6.20;;
49015;SDS011;34830;44.064;12.566;2023-06-22T12:09:59;9.90;;;5.38;;
49015;SDS011;34830;44.064;12.566;2023-06-22T12:12:25;9.95;;;5.82;;
49015;SDS011;34830;44.064;12.566;2023-06-22T12:14:50;12.68;;;5.57;;
49015;SDS011;34830;44.064;12.566;2023-06-22T12:17:16;10.70;;;5.63;;
49015;SDS011;34830;44.064;12.566;2023-06-22T12:19:42;7.60;;;5.15;;
49015;SDS011;34830;44.064;12.566;2023-06-22T12:22:08;9.00;;;5.50;;
49015;SDS011;34830;44.064;12.566;2023-06-22T12:24:33;8.48;;;5.68;;
49015;SDS011;34830;44.064;12.566;2023-06-22T12:26:59;9.32;;;5.10;;
49015;SDS011;34830;44.064;12.566;2023-06-22T12:29:25;11.77;;;4.88;;
49015;SDS011;34830;44.064;12.566;2023-06-22T12:31:51;7.38;;;5.63;;
49015;SDS011;34830;44.064;12.566;2023-06-22T12:34:16;9.75;;;4.53;;
49015;SDS011;34830;44.064;12.566;2023-06-22T12:36:42;8.57;;;4.88;;
49015;SDS011;34830;44.064;12.566;2023-06-22T12:39:08;8.60;;;5.00;;
49015;SDS011;34830;44.064;12.566;2023-06-22T12:41:34;15.77;;;5.22;;
49015;SDS011;34830;44.064;12.566;2023-06-22T12:44:00;6.88;;;5.25;;
49015;SDS011;34830;44.064;12.566;2023-06-22T12:46:25;8.60;;;6.05;;
49015;SDS011;34830;44.064;12.566;2023-06-22T12:48:51;8.68;;;5.07;;
49015;SDS011;34830;44.064;12.566;2023-06-22T12:51:20;8.00;;;5.68;;
49015;SDS011;34830;44.064;12.566;2023-06-22T12:53:47;10.57;;;5.70;;
49015;SDS011;34830;44.064;12.566;2023-06-22T12:56:13;9.15;;;5.57;;
49015;SDS011;34830;44.064;12.566;2023-06-22T12:58:38;9.45;;;5.40;;
49015;SDS011;34830;44.064;12.566;2023-06-22T13:01:04;8.02;;;5.10;;
49015;SDS011;34830;44.064;12.566;2023-06-22T13:03:30;8.40;;;4.85;;
49015;SDS011;34830;44.064;12.566;2023-06-22T13:05:56;8.63;;;4.90;;
49015;SDS011;34830;44.064;12.566;2023-06-22T13:08:21;6.50;;;4.28;;
49015;SDS011;34830;44.064;12.566;2023-06-22T13:10:47;7.68;;;4.60;;
49015;SDS011;34830;44.064;12.566;2023-06-22T13:13:13;6.50;;;4.45;;
49015;SDS011;34830;44.064;12.566;2023-06-22T13:15:39;9.80;;;4.80;;
49015;SDS011;34830;44.064;12.566;2023-06-22T13:18:04;11.75;;;4.97;;
49015;SDS011;34830;44.064;12.566;2023-06-22T13:20:30;11.93;;;5.75;;
49015;SDS011;34830;44.064;12.566;2023-06-22T13:22:57;10.27;;;4.57;;
49015;SDS011;34830;44.064;12.566;2023-06-22T13:25:22;9.07;;;5.20;;
49015;SDS011;34830;44.064;12.566;2023-06-22T13:27:51;12.02;;;4.97;;
49015;SDS011;34830;44.064;12.566;2023-06-22T13:30:17;6.05;;;4.30;;
49015;SDS011;34830;44.064;12.566;2023-06-22T13:32:43;8.77;;;4.55;;
49015;SDS011;34830;44.064;12.566;2023-06-22T13:35:09;8.93;;;4.28;;
49015;SDS011;34830;44.064;12.566;2023-06-22T13:37:35;9.40;;;4.30;;
49015;SDS011;34830;44.064;12.566;2023-06-22T13:40:01;9.98;;;4.95;;
49015;SDS011;34830;44.064;12.566;2023-06-22T13:42:30;8.48;;;4.28;;
49015;SDS011;34830;44.064;12.566;2023-06-22T13:44:56;7.22;;;4.57;;
49015;SDS011;34830;44.064;12.566;2023-06-22T13:47:22;8.15;;;5.28;;
49015;SDS011;34830;44.064;12.566;2023-06-22T13:49:48;10.95;;;4.80;;
49015;SDS011;34830;44.064;12.566;2023-06-22T13:52:14;13.43;;;5.30;;
49015;SDS011;34830;44.064;12.566;2023-06-22T13:54:39;10.20;;;5.10;;
49015;SDS011;34830;44.064;12.566;2023-06-22T13:57:05;11.93;;;5.57;;
49015;SDS011;34830;44.064;12.566;2023-06-22T13:59:31;11.05;;;5.68;;
49015;SDS011;34830;44.064;12.566;2023-06-22T14:01:57;12.05;;;5.78;;
49015;SDS011;34830;44.064;12.566;2023-06-22T14:04:23;8.00;;;5.10;;
49015;SDS011;34830;44.064;12.566;2023-06-22T14:06:49;8.85;;;4.28;;
49015;SDS011;34830;44.064;12.566;2023-06-22T14:09:15;7.90;;;4.53;;
49015;SDS011;34830;44.064;12.566;2023-06-22T14:11:40;8.32;;;4.80;;
49015;SDS011;34830;44.064;12.566;2023-06-22T14:14:06;8.57;;;4.35;;
49015;SDS011;34830;44.064;12.566;2023-06-22T14:16:32;13.20;;;4.75;;
49015;SDS011;34830;44.064;12.566;2023-06-22T14:18:58;7.07;;;4.55;;
49015;SDS011;34830;44.064;12.566;2023-06-22T14:21:24;6.20;;;4.35;;
49015;SDS011;34830;44.064;12.566;2023-06-22T14:23:49;7.65;;;4.60;;
49015;SDS011;34830;44.064;12.566;2023-06-22T14:26:15;12.27;;;5.65;;
49015;SDS011;34830;44.064;12.566;2023-06-22T14:28:47;11.40;;;5.53;;
49015;SDS011;34830;44.064;12.566;2023-06-22T14:31:14;9.75;;;4.70;;